createdAt,value
2023-03-16T00:01:06.490Z,95.40
2023-03-16T00:03:35.127Z,95.76
2023-03-16T00:06:03.694Z,96.62
2023-03-16T00:08:32.377Z,97.07
2023-03-16T00:11:02.900Z,96.39
2023-03-16T00:13:33.234Z,96.56
2023-03-16T00:16:04.697Z,96.46
2023-03-16T00:18:39.426Z,97.30
2023-03-16T00:21:08.188Z,97.29
2023-03-16T00:23:38.596Z,97.28
2023-03-16T00:26:08.929Z,96.41
2023-03-16T00:28:38.982Z,95.83
2023-03-16T00:31:09.393Z,95.73
2023-03-16T00:33:38.238Z,95.31
2023-03-16T00:36:09.561Z,94.56
2023-03-16T00:38:40.309Z,95.72
2023-03-16T00:41:10.038Z,95.90
2023-03-16T00:43:42.085Z,95.59
2023-03-16T00:46:17.442Z,95.62
2023-03-16T00:48:47.422Z,95.59
2023-03-16T00:51:18.259Z,95.34
2023-03-16T00:53:47.529Z,95.32
2023-03-16T00:56:16.087Z,94.76
2023-03-16T00:58:46.358Z,94.15
2023-03-16T01:01:17.368Z,92.67
2023-03-16T01:03:46.103Z,93.40
2023-03-16T01:06:17.374Z,93.19
2023-03-16T01:08:46.118Z,94.77
2023-03-16T01:11:16.840Z,95.13
2023-03-16T01:13:49.702Z,94.45
2023-03-16T01:16:19.630Z,93.71
2023-03-16T01:18:48.386Z,92.66
2023-03-16T01:21:17.149Z,92.53
2023-03-16T01:23:46.050Z,91.92
2023-03-16T01:26:30.806Z,92.31
2023-03-16T01:29:02.204Z,92.43
2023-03-16T01:31:32.068Z,92.77
2023-03-16T01:34:03.026Z,92.57
2023-03-16T01:36:33.710Z,92.57
2023-03-16T01:39:02.445Z,91.97
2023-03-16T01:41:31.366Z,91.87
2023-03-16T01:44:01.374Z,91.18
2023-03-16T01:46:31.305Z,91.16
2023-03-16T01:49:07.228Z,91.82
2023-03-16T01:51:43.617Z,91.93
2023-03-16T01:54:22.137Z,92.00
2023-03-16T01:56:55.789Z,91.61
2023-03-16T01:59:30.019Z,92.01
2023-03-16T02:01:59.228Z,91.32
2023-03-16T02:04:39.158Z,91.12
2023-03-16T02:07:09.183Z,91.50
2023-03-16T02:09:39.627Z,91.87
2023-03-16T02:12:09.269Z,93.26
2023-03-16T02:14:39.248Z,93.07
2023-03-16T02:17:07.592Z,93.89
2023-03-16T02:19:42.476Z,93.68
2023-03-16T02:22:11.631Z,94.19
2023-03-16T02:24:42.986Z,94.32
2023-03-16T02:27:13.173Z,94.78
2023-03-16T02:29:58.168Z,95.77
2023-03-16T02:32:31.187Z,96.14
2023-03-16T02:35:01.461Z,96.39
2023-03-16T02:37:30.652Z,96.71
2023-03-16T02:39:59.440Z,97.00
2023-03-16T02:42:29.105Z,96.97
2023-03-16T02:45:00.338Z,97.38
2023-03-16T02:47:36.213Z,97.43
2023-03-16T02:50:07.076Z,98.39
2023-03-16T02:52:36.275Z,98.78
2023-03-16T02:55:05.248Z,98.73
2023-03-16T02:57:34.159Z,99.52
2023-03-16T03:00:11.426Z,100.00
2023-03-16T03:02:40.024Z,100.00
2023-03-16T03:05:09.265Z,99.91
2023-03-16T03:07:37.947Z,100.00
2023-03-16T03:10:07.397Z,100.00
2023-03-16T03:12:36.291Z,99.91
2023-03-16T03:15:08.168Z,100.00
2023-03-16T03:17:37.666Z,100.00
2023-03-16T03:20:14.003Z,100.00
2023-03-16T03:22:42.794Z,100.00
2023-03-16T03:25:11.331Z,100.00
2023-03-16T03:27:39.808Z,100.00
2023-03-16T03:30:11.100Z,100.00
2023-03-16T03:32:39.621Z,100.00
2023-03-16T03:35:08.510Z,100.00
2023-03-16T03:37:37.646Z,100.00
2023-03-16T03:40:07.290Z,100.00
2023-03-16T03:42:36.012Z,100.00
2023-03-16T03:45:05.014Z,100.00
2023-03-16T03:47:35.033Z,100.00
2023-03-16T03:50:03.695Z,100.00
2023-03-16T03:52:31.960Z,100.00
2023-03-16T03:55:00.256Z,100.00
2023-03-16T03:57:28.916Z,100.00
2023-03-16T03:59:57.663Z,100.00
2023-03-16T04:02:26.609Z,100.00
2023-03-16T04:04:57.205Z,100.00
2023-03-16T04:07:25.899Z,100.00
2023-03-16T04:09:54.286Z,100.00
2023-03-16T04:12:22.903Z,100.00
2023-03-16T04:14:51.928Z,100.00
2023-03-16T04:17:20.422Z,100.00
2023-03-16T04:19:52.342Z,100.00
2023-03-16T04:22:23.887Z,100.00
2023-03-16T04:24:53.861Z,100.00
2023-03-16T04:27:22.464Z,100.00
2023-03-16T04:29:51.128Z,100.00
2023-03-16T04:32:19.679Z,100.00
2023-03-16T04:34:48.499Z,100.00
2023-03-16T04:37:16.807Z,100.00
2023-03-16T04:39:46.876Z,100.00
2023-03-16T04:42:15.467Z,100.00
2023-03-16T04:44:48.554Z,100.00
2023-03-16T04:47:18.139Z,100.00
2023-03-16T04:49:48.410Z,100.00
2023-03-16T04:52:16.975Z,100.00
2023-03-16T04:54:47.307Z,100.00
2023-03-16T04:57:19.412Z,100.00
2023-03-16T04:59:48.137Z,100.00
2023-03-16T05:02:17.136Z,100.00
2023-03-16T05:04:46.228Z,100.00
2023-03-16T05:07:14.977Z,100.00
2023-03-16T05:09:43.982Z,100.00
2023-03-16T05:12:14.306Z,100.00
2023-03-16T05:14:43.189Z,100.00
2023-03-16T05:17:15.233Z,100.00
2023-03-16T05:19:44.190Z,100.00
2023-03-16T05:22:13.107Z,100.00
2023-03-16T05:24:41.939Z,100.00
2023-03-16T05:27:11.353Z,100.00
2023-03-16T05:29:46.256Z,100.00
2023-03-16T05:32:17.759Z,100.00
2023-03-16T05:34:46.139Z,100.00
2023-03-16T05:37:15.160Z,100.00
2023-03-16T05:39:43.707Z,100.00
2023-03-16T05:42:20.053Z,100.00
2023-03-16T05:44:50.236Z,100.00
2023-03-16T05:47:18.719Z,100.00
2023-03-16T05:49:47.109Z,100.00
2023-03-16T05:52:15.930Z,100.00
2023-03-16T05:54:44.456Z,100.00
2023-03-16T05:57:15.197Z,100.00
2023-03-16T05:59:44.152Z,100.00
2023-03-16T06:02:14.511Z,100.00
2023-03-16T06:04:43.001Z,100.00
2023-03-16T06:07:12.416Z,100.00
2023-03-16T06:09:41.359Z,100.00
2023-03-16T06:12:10.280Z,100.00
2023-03-16T06:14:39.069Z,100.00
2023-03-16T06:17:07.816Z,100.00
2023-03-16T06:19:37.947Z,100.00
2023-03-16T06:22:31.636Z,100.00
2023-03-16T06:25:00.430Z,100.00
2023-03-16T06:27:32.134Z,100.00
2023-03-16T06:30:01.712Z,100.00
2023-03-16T06:32:30.302Z,100.00
2023-03-16T06:35:02.376Z,100.00
2023-03-16T06:37:31.338Z,100.00
2023-03-16T06:39:59.929Z,100.00
2023-03-16T06:42:31.141Z,100.00
2023-03-16T06:44:59.961Z,100.00
2023-03-16T06:47:30.051Z,100.00
2023-03-16T06:50:00.166Z,99.85
2023-03-16T06:52:28.962Z,99.88
2023-03-16T06:54:58.720Z,99.78
2023-03-16T06:57:27.398Z,99.28
2023-03-16T06:59:57.325Z,97.99
2023-03-16T07:02:25.949Z,98.00
2023-03-16T07:04:54.628Z,96.93
2023-03-16T07:07:25.044Z,96.28
2023-03-16T07:09:53.555Z,95.24
2023-03-16T07:12:22.233Z,94.89
2023-03-16T07:16:03.877Z,94.05
2023-03-16T07:18:32.635Z,92.95
2023-03-16T07:21:01.398Z,90.79
2023-03-16T07:23:32.555Z,89.50
2023-03-16T07:26:01.103Z,88.96
2023-03-16T07:28:29.953Z,88.03
2023-03-16T07:31:03.742Z,87.09
2023-03-16T07:33:33.580Z,85.96
2023-03-16T07:36:04.486Z,84.57
2023-03-16T07:38:35.767Z,85.13
2023-03-16T07:41:04.501Z,84.41
2023-03-16T07:43:33.680Z,81.81
2023-03-16T07:46:03.520Z,80.92
2023-03-16T07:48:33.065Z,79.69
2023-03-16T07:51:02.118Z,79.20
2023-03-16T07:53:30.615Z,77.98
2023-03-16T07:56:02.057Z,79.56
2023-03-16T07:58:30.566Z,79.05
2023-03-16T08:01:00.056Z,76.77
2023-03-16T08:03:29.312Z,75.96
2023-03-16T08:05:58.100Z,74.57
2023-03-16T08:08:26.796Z,71.60
2023-03-16T08:10:56.707Z,70.76
2023-03-16T08:13:28.568Z,69.83
2023-03-16T08:15:58.807Z,65.10
2023-03-16T08:18:27.968Z,67.19
2023-03-16T08:20:56.891Z,66.53
2023-03-16T08:23:26.106Z,59.35
2023-03-16T08:25:55.401Z,53.68
2023-03-16T08:28:26.152Z,54.57
2023-03-16T08:30:58.791Z,52.41
2023-03-16T08:33:28.109Z,53.63
2023-03-16T08:35:57.236Z,54.46
2023-03-16T08:38:25.694Z,53.61
2023-03-16T08:40:54.501Z,51.25
2023-03-16T08:43:24.313Z,53.76
2023-03-16T08:45:54.393Z,55.16
2023-03-16T08:48:24.925Z,51.54
2023-03-16T08:50:54.260Z,49.56
2023-03-16T08:53:25.625Z,51.00
2023-03-16T08:55:53.987Z,52.77
2023-03-16T08:58:22.756Z,52.36
2023-03-16T09:00:51.232Z,51.24
2023-03-16T09:03:20.207Z,51.04
2023-03-16T09:05:50.595Z,49.43
2023-03-16T09:08:19.533Z,49.95
2023-03-16T09:10:48.155Z,48.35
2023-03-16T09:13:16.796Z,49.69
2023-03-16T09:15:45.601Z,50.81
2023-03-16T09:18:14.319Z,50.77
2023-03-16T09:20:42.874Z,50.75
2023-03-16T09:23:14.305Z,45.36
2023-03-16T09:25:42.912Z,39.68
2023-03-16T09:28:11.503Z,34.69
2023-03-16T09:30:40.221Z,30.19
2023-03-16T09:33:08.831Z,28.79
2023-03-16T09:35:41.006Z,27.36
2023-03-16T09:38:09.452Z,27.88
2023-03-16T09:40:39.712Z,28.90
2023-03-16T09:43:18.002Z,31.56
2023-03-16T09:45:50.889Z,33.35
2023-03-16T09:48:21.259Z,31.93
2023-03-16T09:50:50.801Z,29.40
2023-03-16T09:53:25.044Z,29.60
2023-03-16T09:56:00.082Z,28.13
2023-03-16T09:58:28.906Z,30.50
2023-03-16T10:01:05.140Z,33.35
2023-03-16T10:03:40.366Z,34.64
2023-03-16T10:06:12.703Z,34.15
2023-03-16T10:08:42.909Z,32.14
2023-03-16T10:11:27.344Z,29.40
2023-03-16T10:14:05.815Z,29.33
2023-03-16T10:16:38.937Z,28.77
2023-03-16T10:19:13.511Z,26.86
2023-03-16T10:21:43.541Z,25.73
2023-03-16T10:24:22.061Z,23.64
2023-03-16T10:26:56.636Z,26.55
2023-03-16T10:29:25.122Z,29.32
2023-03-16T10:31:53.839Z,30.89
2023-03-16T10:34:23.783Z,28.46
2023-03-16T10:36:53.407Z,27.05
2023-03-16T10:39:22.243Z,25.30
2023-03-16T10:41:58.642Z,23.85
2023-03-16T10:44:28.837Z,23.35
2023-03-16T10:47:23.195Z,23.16
2023-03-16T10:49:53.595Z,23.08
2023-03-16T10:52:26.431Z,24.65
2023-03-16T10:55:00.464Z,25.74
2023-03-16T10:57:33.714Z,28.42
2023-03-16T11:00:16.140Z,28.95
2023-03-16T11:02:46.466Z,31.36
2023-03-16T11:05:17.604Z,31.16
2023-03-16T11:07:50.399Z,31.75
2023-03-16T11:10:28.424Z,31.93
2023-03-16T11:13:03.758Z,33.64
2023-03-16T11:15:39.871Z,35.38
2023-03-16T11:18:11.773Z,36.78
2023-03-16T11:20:40.316Z,36.60
2023-03-16T11:23:16.579Z,36.05
2023-03-16T11:25:47.971Z,36.33
2023-03-16T11:28:20.840Z,34.68
2023-03-16T11:30:55.610Z,32.96
2023-03-16T11:33:27.587Z,31.47
2023-03-16T11:36:02.705Z,31.43
2023-03-16T11:38:36.433Z,33.10
2023-03-16T11:41:09.360Z,34.23
2023-03-16T11:43:50.988Z,34.56
2023-03-16T11:46:22.907Z,35.71
2023-03-16T11:49:15.409Z,36.29
2023-03-16T11:51:49.844Z,38.67
2023-03-16T11:54:30.164Z,39.08
2023-03-16T11:57:03.358Z,38.47
2023-03-16T12:00:00.596Z,36.04
2023-03-16T12:02:57.533Z,37.65
2023-03-16T12:05:44.347Z,36.32
2023-03-16T12:08:21.758Z,36.27
2023-03-16T12:10:54.511Z,36.66
2023-03-16T12:13:48.455Z,38.80
2023-03-16T12:16:25.125Z,38.08
2023-03-16T12:18:58.000Z,40.35
2023-03-16T12:21:32.588Z,36.93
2023-03-16T12:24:08.504Z,38.87
2023-03-16T12:26:40.185Z,36.98
2023-03-16T12:29:31.040Z,35.29
2023-03-16T12:32:09.845Z,36.95
2023-03-16T12:34:45.891Z,36.47
2023-03-16T12:37:36.238Z,36.26
2023-03-16T12:40:10.946Z,34.47
2023-03-16T12:42:52.007Z,34.75
2023-03-16T12:45:28.903Z,37.62
2023-03-16T12:48:04.938Z,37.42
2023-03-16T12:50:33.893Z,34.51
2023-03-16T12:53:02.325Z,35.07
2023-03-16T12:55:46.029Z,34.53
2023-03-16T12:58:14.888Z,33.47
2023-03-16T13:00:44.792Z,33.94
2023-03-16T13:03:18.526Z,33.29
2023-03-16T13:05:50.094Z,34.10
2023-03-16T13:08:21.352Z,33.06
2023-03-16T13:11:07.231Z,33.47
2023-03-16T13:13:35.943Z,33.36
2023-03-16T13:16:09.592Z,31.98
2023-03-16T13:18:45.372Z,32.69
2023-03-16T13:21:19.773Z,31.94
2023-03-16T13:23:58.256Z,33.14
2023-03-16T13:26:40.399Z,30.76
2023-03-16T13:29:27.322Z,32.18
2023-03-16T13:31:56.773Z,31.72
2023-03-16T13:34:30.635Z,30.92
2023-03-16T13:37:01.748Z,30.65
2023-03-16T13:39:31.744Z,30.41
2023-03-16T13:42:03.404Z,29.91
2023-03-16T13:44:32.555Z,30.99
2023-03-16T13:47:05.523Z,31.57
2023-03-16T13:49:35.962Z,29.61
2023-03-16T13:52:07.989Z,29.80
2023-03-16T13:54:38.455Z,29.32
2023-03-16T13:57:11.478Z,29.44
2023-03-16T13:59:43.791Z,30.13
2023-03-16T14:02:19.147Z,28.58
2023-03-16T14:04:49.075Z,28.05
2023-03-16T14:07:19.210Z,26.76
2023-03-16T14:10:38.001Z,26.55
2023-03-16T14:13:11.432Z,25.42
2023-03-16T14:15:41.016Z,25.86
2023-03-16T14:18:16.624Z,25.68
2023-03-16T14:20:46.805Z,26.83
2023-03-16T14:23:22.058Z,26.63
2023-03-16T14:25:50.802Z,25.66
2023-03-16T14:28:21.897Z,26.21
2023-03-16T14:31:08.023Z,26.91
2023-03-16T14:33:40.401Z,27.65
2023-03-16T14:36:14.586Z,28.11
2023-03-16T14:38:44.324Z,27.94
2023-03-16T14:41:23.929Z,27.35
2023-03-16T14:43:53.780Z,25.52
2023-03-16T14:46:48.022Z,25.33
2023-03-16T14:49:22.962Z,26.93
2023-03-16T14:51:54.794Z,27.00
2023-03-16T14:54:31.556Z,25.64
2023-03-16T14:57:03.004Z,24.52
2023-03-16T14:59:31.873Z,22.92
2023-03-16T15:02:01.074Z,21.67
2023-03-16T15:04:32.363Z,20.45
2023-03-16T15:07:15.848Z,20.12
2023-03-16T15:09:44.670Z,19.63
2023-03-16T15:12:16.290Z,19.36
2023-03-16T15:15:18.052Z,19.25
2023-03-16T15:17:47.167Z,18.58
2023-03-16T15:20:17.465Z,19.38
2023-03-16T15:22:48.101Z,19.91
2023-03-16T15:25:36.521Z,19.56
2023-03-16T15:28:15.123Z,20.57
2023-03-16T15:30:44.923Z,20.76
2023-03-16T15:33:14.249Z,21.46
2023-03-16T15:35:43.532Z,21.29
2023-03-16T15:38:18.155Z,22.06
2023-03-16T15:40:48.227Z,22.12
2023-03-16T15:43:18.882Z,21.90
2023-03-16T15:45:48.980Z,22.57
2023-03-16T15:48:20.287Z,23.70
2023-03-16T15:50:53.494Z,24.06
2023-03-16T15:53:31.312Z,23.50
2023-03-16T15:56:03.271Z,22.43
2023-03-16T15:58:33.174Z,21.63
2023-03-16T16:01:03.136Z,20.90
2023-03-16T16:03:31.852Z,20.72
2023-03-16T16:06:00.565Z,20.43
2023-03-16T16:08:30.438Z,20.40
2023-03-16T16:10:59.024Z,21.09
2023-03-16T16:13:43.461Z,21.29
2023-03-16T16:16:14.006Z,21.86
2023-03-16T16:18:43.026Z,22.43
2023-03-16T16:21:18.076Z,24.47
2023-03-16T16:23:50.935Z,27.49
2023-03-16T16:26:49.868Z,30.56
2023-03-16T16:29:22.437Z,35.15
2023-03-16T16:31:51.689Z,36.57
2023-03-16T16:34:24.765Z,39.37
2023-03-16T16:36:54.321Z,42.46
2023-03-16T16:39:24.445Z,43.19
2023-03-16T16:41:56.897Z,44.00
2023-03-16T16:44:31.435Z,47.23
2023-03-16T16:47:01.719Z,50.34
2023-03-16T16:49:31.580Z,50.74
2023-03-16T16:52:01.287Z,50.79
2023-03-16T16:54:32.599Z,47.77
2023-03-16T16:57:02.376Z,46.08
2023-03-16T16:59:32.620Z,46.68
2023-03-16T17:02:05.276Z,46.38
2023-03-16T17:04:33.983Z,51.49
2023-03-16T17:07:03.641Z,49.81
2023-03-16T17:09:34.795Z,49.28
2023-03-16T17:12:03.611Z,51.69
2023-03-16T17:14:33.378Z,51.74
2023-03-16T17:17:04.380Z,55.19
2023-03-16T17:19:33.252Z,56.53
2023-03-16T17:22:03.421Z,55.26
2023-03-16T17:24:33.434Z,54.50
2023-03-16T17:27:03.592Z,53.80
2023-03-16T17:29:34.616Z,54.45
2023-03-16T17:32:05.791Z,54.31
2023-03-16T17:34:36.155Z,54.80
2023-03-16T17:37:05.393Z,56.42
2023-03-16T17:39:38.417Z,57.07
2023-03-16T17:42:08.887Z,57.39
2023-03-16T17:44:41.016Z,57.04
2023-03-16T17:47:15.426Z,57.69
2023-03-16T17:49:49.044Z,58.07
2023-03-16T17:52:19.710Z,58.09
2023-03-16T17:54:50.676Z,57.53
2023-03-16T17:57:21.075Z,56.77
2023-03-16T17:59:49.925Z,56.99
2023-03-16T18:02:35.366Z,57.57
2023-03-16T18:05:05.825Z,58.66
2023-03-16T18:07:34.579Z,58.11
2023-03-16T18:10:04.743Z,58.25
2023-03-16T18:12:34.260Z,58.31
2023-03-16T18:15:03.810Z,58.66
2023-03-16T18:17:36.772Z,61.09
2023-03-16T18:20:07.363Z,63.25
2023-03-16T18:22:36.503Z,64.26
2023-03-16T18:25:33.876Z,64.34
2023-03-16T18:28:03.177Z,63.42
2023-03-16T18:30:34.272Z,62.27
2023-03-16T18:33:04.475Z,61.72
2023-03-16T18:35:33.437Z,60.90
2023-03-16T18:38:02.099Z,61.10
2023-03-16T18:40:32.674Z,60.26
2023-03-16T18:43:04.664Z,59.62
2023-03-16T18:45:33.196Z,59.61
2023-03-16T18:48:02.110Z,60.04
2023-03-16T18:50:31.556Z,59.98
2023-03-16T18:53:00.269Z,60.22
2023-03-16T18:55:29.555Z,60.51
2023-03-16T18:58:00.566Z,61.04
2023-03-16T19:00:30.089Z,61.49
2023-03-16T19:03:01.625Z,61.80
2023-03-16T19:05:35.876Z,62.15
2023-03-16T19:08:05.457Z,62.32
2023-03-16T19:10:37.208Z,62.24
2023-03-16T19:13:12.360Z,61.77
2023-03-16T19:15:40.877Z,61.04
2023-03-16T19:18:09.907Z,61.86
2023-03-16T19:20:38.674Z,61.33
2023-03-16T19:23:08.859Z,61.71
2023-03-16T19:25:38.930Z,62.47
2023-03-16T19:28:14.882Z,62.86
2023-03-16T19:30:43.956Z,62.89
2023-03-16T19:33:19.074Z,64.42
2023-03-16T19:35:51.789Z,64.09
2023-03-16T19:38:21.628Z,64.59
2023-03-16T19:40:51.362Z,64.47
2023-03-16T19:43:22.539Z,64.76
2023-03-16T19:45:51.845Z,64.14
2023-03-16T19:48:25.675Z,68.39
2023-03-16T19:50:54.272Z,68.73
2023-03-16T19:53:24.126Z,69.20
2023-03-16T19:55:54.414Z,69.60
2023-03-16T19:58:31.651Z,69.71
2023-03-16T20:01:01.346Z,70.97
2023-03-16T20:03:30.406Z,71.00
2023-03-16T20:05:59.139Z,69.99
2023-03-16T20:08:29.433Z,70.64
2023-03-16T20:11:01.209Z,69.59
2023-03-16T20:13:31.922Z,69.95
2023-03-16T20:16:00.824Z,69.06
2023-03-16T20:18:30.431Z,69.92
2023-03-16T20:20:59.333Z,70.77
2023-03-16T20:23:30.535Z,71.21
2023-03-16T20:26:02.797Z,70.40
2023-03-16T20:28:37.303Z,69.48
2023-03-16T20:31:12.644Z,70.90
2023-03-16T20:33:41.882Z,71.71
2023-03-16T20:36:15.353Z,71.95
2023-03-16T20:39:09.192Z,72.11
2023-03-16T20:41:39.482Z,72.56
2023-03-16T20:44:14.674Z,72.88
2023-03-16T20:46:44.991Z,73.69
2023-03-16T20:49:30.743Z,73.75
2023-03-16T20:52:02.626Z,73.13
2023-03-16T20:54:31.665Z,72.57
2023-03-16T20:57:01.384Z,72.63
2023-03-16T20:59:34.004Z,71.63
2023-03-16T21:02:03.408Z,71.73
2023-03-16T21:04:32.773Z,71.98
2023-03-16T21:07:01.713Z,71.79
2023-03-16T21:09:32.259Z,71.88
2023-03-16T21:12:00.832Z,72.14
2023-03-16T21:14:29.634Z,73.56
2023-03-16T21:16:59.862Z,74.63
2023-03-16T21:19:29.673Z,74.38
2023-03-16T21:21:58.240Z,73.83
2023-03-16T21:24:27.558Z,74.40
2023-03-16T21:26:57.380Z,74.57
2023-03-16T21:29:27.624Z,75.54
2023-03-16T21:31:57.495Z,75.52
2023-03-16T21:34:31.351Z,76.00
2023-03-16T21:37:00.371Z,74.92
2023-03-16T21:39:29.285Z,73.95
2023-03-16T21:42:17.416Z,73.50
2023-03-16T21:44:46.531Z,73.38
2023-03-16T21:47:24.651Z,73.39
2023-03-16T21:50:06.308Z,73.28
2023-03-16T21:52:35.129Z,73.29
2023-03-16T21:55:04.020Z,73.44
2023-03-16T21:57:32.485Z,73.49
2023-03-16T22:00:01.399Z,73.85
2023-03-16T22:02:30.300Z,73.54
2023-03-16T22:05:00.673Z,73.45
2023-03-16T22:07:29.256Z,75.04
2023-03-16T22:10:01.673Z,74.72
2023-03-16T22:12:30.144Z,74.70
2023-03-16T22:14:58.534Z,74.46
2023-03-16T22:17:29.021Z,73.80
2023-03-16T22:19:57.841Z,73.39
2023-03-16T22:22:28.852Z,73.08
2023-03-16T22:24:57.732Z,72.75
2023-03-16T22:27:27.907Z,72.91
2023-03-16T22:29:56.931Z,73.06
2023-03-16T22:32:27.793Z,73.46
2023-03-16T22:34:58.664Z,73.26
2023-03-16T22:37:30.407Z,72.92
2023-03-16T22:39:59.182Z,71.54
2023-03-16T22:42:31.966Z,71.13
2023-03-16T22:45:01.342Z,71.70
2023-03-16T22:47:32.627Z,71.18
2023-03-16T22:50:02.328Z,71.44
2023-03-16T22:52:34.736Z,71.35
2023-03-16T22:55:05.284Z,71.70
2023-03-16T22:57:34.592Z,71.37
2023-03-16T23:00:11.391Z,71.54
2023-03-16T23:02:47.381Z,71.64
2023-03-16T23:05:21.414Z,71.03
2023-03-16T23:07:54.593Z,71.48
2023-03-16T23:10:25.905Z,71.33
2023-03-16T23:12:54.602Z,70.79
2023-03-16T23:15:25.328Z,71.29
2023-03-16T23:17:54.011Z,71.49
2023-03-16T23:20:25.088Z,71.55
2023-03-16T23:22:55.930Z,71.92
2023-03-16T23:25:25.055Z,72.51
2023-03-16T23:27:54.214Z,72.42
2023-03-16T23:30:25.014Z,72.58
2023-03-16T23:32:55.700Z,72.03
2023-03-16T23:35:26.240Z,71.87
2023-03-16T23:37:56.720Z,71.51
2023-03-16T23:40:29.579Z,71.86
2023-03-16T23:42:59.959Z,72.46
2023-03-16T23:45:33.170Z,72.62
2023-03-16T23:48:05.891Z,73.36
2023-03-16T23:50:36.769Z,73.57
2023-03-16T23:53:08.391Z,73.94
2023-03-16T23:55:37.654Z,73.61
2023-03-16T23:58:06.553Z,72.92
